OJAI/AMM METAR and TAF weather

Enter ICAO airport designator
Station Type Date Time Source
OJAI METAR 2021/04/13 23:00 UTC NOAA

OJAI 132300Z 00000KT 5000 HZ NSC 06/04 Q1020 NOSIG


Station Type Date Time Source
OJAI Decoded METAR 2021/04/13 23:00 UTC NOAA

Queen Alia Airport, Jordan (OJAI) 31-40N 035-58E
Apr 13, 2021 - 07:00 PM EDT / 2021.04.13 2300 UTC
Wind: Calm:0
Visibility: 3 mile(s):0
Weather: haze
Temperature: 42 F (6 C)
Dew Point: 39 F (4 C)
Relative Humidity: 86%
Pressure (altimeter): 30.12 in. Hg (1020 hPa)
ob: OJAI 132300Z 00000KT 5000 HZ NSC 06/04 Q1020 NOSIG
cycle: 23

Station Type Date Time Source
OJAI TAF 2021/04/13 18:15 UTC NOAA

TAF TAF OJAI 131648Z 1318/1424 28010KT 6000 NSC
TEMPO 1403/1415 15010KT 5000 HZ

Example: see airport list